Time;durP1;ratioP1;P1;durP2;ratioP2;P2;SDS_P1;SDS_P2;PMS_P1;PMS_P2;Temp;Humidity;BMP_temperature;BMP_pressure;BME280_temperature;BME280_humidity;BME280_pressure;Samples;Min_cycle;Max_cycle;Signal;HPM_P1;HPM_P2
2023/05/22 00:00:07;;;;;;;8.50;4.47;;;;;;;23.08;45.63;99496.66;4497958;31;34059;-64
2023/05/22 00:02:41;;;;;;;12.90;4.28;;;;;;;23.10;45.47;99490.97;4489143;31;34894;-65
2023/05/22 00:05:14;;;;;;;8.77;4.33;;;;;;;23.13;45.45;99498.75;4493814;31;33213;-65
2023/05/22 00:07:41;;;;;;;8.73;4.68;;;;;;;23.05;45.80;99499.78;4491186;31;33549;-65
2023/05/22 00:10:10;;;;;;;5.72;3.60;;;;;;;22.96;46.08;99499.09;4496529;31;34177;-65
2023/05/22 00:12:38;;;;;;;7.05;3.65;;;;;;;22.85;46.48;99498.75;4496645;31;34863;-65
2023/05/22 00:15:06;;;;;;;5.28;3.53;;;;;;;22.83;46.34;99495.41;4498956;31;33008;-65
2023/05/22 00:17:34;;;;;;;8.05;4.82;;;;;;;22.78;46.36;99496.00;4498390;31;33690;-65
2023/05/22 00:20:05;;;;;;;9.38;4.50;;;;;;;22.67;46.60;99494.69;4492969;31;33905;-64
2023/05/22 00:22:34;;;;;;;9.15;4.10;;;;;;;22.65;46.66;99493.19;4498540;31;33283;-65
2023/05/22 00:25:03;;;;;;;6.78;4.05;;;;;;;22.64;46.88;99488.78;4486887;31;31757;-64
2023/05/22 00:27:30;;;;;;;7.95;4.78;;;;;;;22.60;47.09;99491.06;4490958;31;35355;-63
2023/05/22 00:29:58;;;;;;;6.22;4.30;;;;;;;22.63;47.26;99481.63;4496970;31;34302;-62
2023/05/22 00:32:26;;;;;;;8.05;3.75;;;;;;;22.61;47.51;99486.44;4486712;31;34890;-65
2023/05/22 00:34:54;;;;;;;7.85;3.42;;;;;;;22.54;47.11;99489.97;4490657;31;34544;-65
2023/05/22 00:37:22;;;;;;;9.38;3.87;;;;;;;22.60;47.44;99488.34;4495096;31;34595;-65
2023/05/22 00:39:49;;;;;;;6.47;4.20;;;;;;;22.50;47.63;99485.09;4498883;31;34883;-65
2023/05/22 00:42:17;;;;;;;12.43;3.87;;;;;;;22.54;47.48;99489.97;4495270;31;33597;-65
2023/05/22 00:44:47;;;;;;;9.38;3.95;;;;;;;22.56;47.52;99482.41;4499276;31;33035;-65
2023/05/22 00:47:14;;;;;;;9.88;4.18;;;;;;;22.49;47.63;99478.78;4496353;31;35799;-64
2023/05/22 00:49:42;;;;;;;8.27;4.40;;;;;;;22.49;47.53;99483.41;4491053;31;34225;-64
2023/05/22 00:52:11;;;;;;;7.45;3.80;;;;;;;22.18;48.59;99492.78;4498099;31;33911;-66
2023/05/22 00:54:39;;;;;;;9.68;5.00;;;;;;;22.02;49.01;99485.72;4485494;31;33281;-65
2023/05/22 00:57:07;;;;;;;6.95;4.95;;;;;;;22.08;48.81;99484.06;4492747;31;33760;-65
2023/05/22 00:59:35;;;;;;;4.93;3.10;;;;;;;21.94;49.09;99491.28;4494826;31;33664;-66
2023/05/22 01:02:02;;;;;;;8.43;3.78;;;;;;;21.87;49.10;99491.22;4495171;31;34836;-65
2023/05/22 01:04:31;;;;;;;4.93;2.95;;;;;;;21.92;48.81;99484.34;4495608;31;32283;-65
2023/05/22 01:07:01;;;;;;;6.12;3.62;;;;;;;21.90;48.86;99486.44;4495003;31;33741;-65
2023/05/22 01:09:29;;;;;;;4.20;2.65;;;;;;;21.90;48.91;99478.25;4497063;31;34942;-65
2023/05/22 01:12:03;;;;;;;6.87;3.78;;;;;;;21.80;49.11;99475.84;4488694;31;33855;-65
2023/05/22 01:14:46;;;;;;;6.87;4.22;;;;;;;21.67;49.43;99483.84;4491402;31;33164;-65
2023/05/22 01:17:33;;;;;;;8.13;4.20;;;;;;;21.62;49.47;99488.00;4484296;31;33719;-65
2023/05/22 01:20:21;;;;;;;6.37;4.10;;;;;;;21.60;49.47;99484.66;4479386;31;35048;-65
2023/05/22 01:23:10;;;;;;;6.12;3.55;;;;;;;21.64;49.55;99482.37;4487066;31;33910;-65
2023/05/22 01:25:55;;;;;;;4.60;2.72;;;;;;;21.60;49.69;99479.22;4491797;31;33106;-65
2023/05/22 01:28:35;;;;;;;7.45;4.18;;;;;;;21.60;49.92;99484.66;4488403;31;34738;-65
2023/05/22 01:31:09;;;;;;;5.32;3.08;;;;;;;21.62;49.49;99488.00;4481193;31;33749;-65
2023/05/22 01:34:10;;;;;;;6.72;3.92;;;;;;;21.43;49.72;99485.91;4483382;31;32819;-65
2023/05/22 01:36:40;;;;;;;5.93;3.65;;;;;;;21.39;49.63;99485.44;4463205;31;34854;-64
2023/05/22 01:39:08;;;;;;;6.85;3.40;;;;;;;21.46;49.64;99485.53;4485406;31;33868;-64
2023/05/22 01:41:36;;;;;;;6.82;4.72;;;;;;;21.40;49.81;99487.12;4487912;31;34920;-65
2023/05/22 01:44:04;;;;;;;8.82;4.30;;;;;;;21.37;49.70;99473.06;4485830;31;34599;-64
2023/05/22 01:46:32;;;;;;;5.57;3.30;;;;;;;21.31;49.86;99479.22;4491661;31;36681;-64
2023/05/22 01:49:00;;;;;;;7.60;3.20;;;;;;;21.14;50.27;99471.28;4497514;31;34840;-64
2023/05/22 01:51:47;;;;;;;8.30;4.20;;;;;;;21.20;49.77;99475.13;4492374;31;33238;-64
2023/05/22 01:54:22;;;;;;;7.05;4.47;;;;;;;21.15;49.71;99469.41;4481238;31;35395;-65
2023/05/22 01:57:02;;;;;;;4.65;3.25;;;;;;;21.13;49.70;99466.87;4493904;31;33364;-65
2023/05/22 01:59:39;;;;;;;6.65;3.85;;;;;;;20.78;50.57;99464.94;4485039;31;33638;-64
2023/05/22 02:02:09;;;;;;;7.15;3.45;;;;;;;20.88;50.19;99473.66;4479955;31;32516;-63
2023/05/22 02:04:38;;;;;;;5.15;2.97;;;;;;;20.88;50.00;99458.16;4488443;31;33761;-64
2023/05/22 02:07:08;;;;;;;8.55;4.18;;;;;;;20.78;50.20;99463.03;4487215;31;33315;-66
2023/05/22 02:09:39;;;;;;;4.47;2.60;;;;;;;20.82;50.00;99458.91;4482623;31;33786;-66
2023/05/22 02:12:07;;;;;;;6.57;2.87;;;;;;;20.78;49.99;99457.59;4493461;31;34006;-66
2023/05/22 02:14:35;;;;;;;4.40;2.75;;;;;;;20.79;49.80;99459.28;4487277;31;34061;-65
2023/05/22 02:17:04;;;;;;;4.70;3.00;;;;;;;20.81;49.59;99461.84;4484461;31;34421;-64
2023/05/22 02:19:34;;;;;;;7.55;2.90;;;;;;;20.76;49.88;99458.81;4498582;31;34768;-65
2023/05/22 02:22:01;;;;;;;6.25;3.87;;;;;;;20.78;49.75;99456.78;4496015;31;35136;-66
2023/05/22 02:24:34;;;;;;;6.47;2.85;;;;;;;20.61;50.30;99456.97;4494081;31;33902;-65
2023/05/22 02:27:02;;;;;;;9.05;3.60;;;;;;;20.60;50.21;99459.84;4490081;31;32199;-64
2023/05/22 02:29:30;;;;;;;6.03;3.20;;;;;;;20.62;50.08;99464.06;4493134;31;33618;-66
2023/05/22 02:31:58;;;;;;;5.82;3.42;;;;;;;20.57;50.47;99449.34;4496079;31;32516;-65
2023/05/22 02:34:25;;;;;;;7.62;3.78;;;;;;;20.67;50.23;99456.22;4498162;31;33875;-63
2023/05/22 02:36:55;;;;;;;6.50;3.60;;;;;;;20.63;50.41;99459.47;4486588;31;33466;-64
2023/05/22 02:39:22;;;;;;;4.18;2.55;;;;;;;20.58;50.51;99451.87;4494036;31;34950;-63
2023/05/22 02:41:50;;;;;;;7.50;3.97;;;;;;;20.60;50.21;99443.53;4494487;31;32931;-64
2023/05/22 02:44:17;;;;;;;4.00;3.05;;;;;;;20.51;50.17;99450.03;4497136;31;32430;-63
2023/05/22 02:46:46;;;;;;;3.70;2.30;;;;;;;20.44;50.40;99450.78;4495503;31;34808;-63
2023/05/22 02:49:13;;;;;;;7.25;3.58;;;;;;;20.32;50.77;99452.28;4494004;31;33660;-63
2023/05/22 02:51:46;;;;;;;5.43;2.62;;;;;;;20.36;50.52;99450.88;4496606;31;34834;-63
2023/05/22 02:54:14;;;;;;;4.80;2.87;;;;;;;20.37;50.11;99451.72;4492574;31;33588;-63
2023/05/22 02:56:42;;;;;;;4.03;2.50;;;;;;;20.32;50.32;99446.84;4497792;31;33039;-64
2023/05/22 02:59:10;;;;;;;4.00;2.53;;;;;;;20.25;50.12;99448.59;4498756;31;35074;-64
2023/05/22 03:01:38;;;;;;;6.70;2.58;;;;;;;20.40;49.32;99452.19;4489971;31;35159;-64
2023/05/22 03:04:06;;;;;;;4.75;3.10;;;;;;;20.42;48.97;99452.03;4491814;31;33875;-64
2023/05/22 03:06:35;;;;;;;4.87;2.58;;;;;;;20.37;49.12;99452.56;4492637;31;31556;-64
2023/05/22 03:09:03;;;;;;;4.70;2.53;;;;;;;20.20;49.59;99441.00;4490073;31;33897;-63
2023/05/22 03:11:31;;;;;;;5.18;3.53;;;;;;;20.24;49.38;99450.47;4494413;31;32440;-63
2023/05/22 03:13:59;;;;;;;3.55;2.35;;;;;;;20.00;50.28;99457.00;4498039;31;33642;-64
2023/05/22 03:16:26;;;;;;;3.03;2.35;;;;;;;19.89;50.62;99451.97;4491145;31;33115;-64
2023/05/22 03:19:11;;;;;;;3.62;2.17;;;;;;;19.96;50.45;99447.50;4491221;31;34703;-63
2023/05/22 03:21:39;;;;;;;15.85;3.33;;;;;;;20.02;49.94;99452.19;4496775;31;32089;-63
2023/05/22 03:24:07;;;;;;;5.57;2.72;;;;;;;20.05;49.59;99451.00;4495788;31;35003;-63
2023/05/22 03:26:34;;;;;;;6.85;2.87;;;;;;;19.84;50.10;99438.13;4498409;31;33331;-63
2023/05/22 03:29:02;;;;;;;3.97;2.30;;;;;;;19.94;49.67;99446.84;4498178;31;33699;-63
2023/05/22 03:31:32;;;;;;;7.65;2.62;;;;;;;19.99;49.62;99449.00;4490654;31;33866;-64
2023/05/22 03:34:01;;;;;;;3.05;2.28;;;;;;;20.02;49.24;99443.22;4491236;31;33949;-63
2023/05/22 03:36:28;;;;;;;10.98;3.12;;;;;;;20.15;48.87;99443.44;4499299;31;34189;-64
2023/05/22 03:38:59;;;;;;;8.40;3.22;;;;;;;20.19;48.90;99449.34;4494819;31;32580;-63
2023/05/22 03:41:27;;;;;;;5.45;2.55;;;;;;;20.21;48.92;99439.97;4499704;31;34013;-64
2023/05/22 03:43:56;;;;;;;3.83;2.53;;;;;;;20.09;49.13;99452.31;4494519;31;33716;-64
2023/05/22 03:46:24;;;;;;;6.93;2.60;;;;;;;20.24;48.93;99445.03;4496472;31;32930;-63
2023/05/22 03:48:52;;;;;;;4.65;2.72;;;;;;;20.38;48.68;99443.38;4496923;31;33913;-64
2023/05/22 03:51:20;;;;;;;5.25;3.10;;;;;;;20.27;49.34;99445.72;4495560;31;33253;-64
2023/05/22 03:53:48;;;;;;;7.37;2.42;;;;;;;20.20;49.50;99438.28;4496017;31;34577;-64
2023/05/22 03:56:15;;;;;;;13.43;3.45;;;;;;;20.31;49.67;99442.44;4499002;31;33424;-64
2023/05/22 03:58:43;;;;;;;4.85;2.15;;;;;;;20.41;49.54;99448.44;4495389;31;34713;-65
2023/05/22 04:01:12;;;;;;;8.00;2.62;;;;;;;20.40;49.12;99441.31;4492747;31;33579;-65
2023/05/22 04:03:40;;;;;;;3.40;2.05;;;;;;;20.37;49.46;99441.69;4499327;31;33492;-64
2023/05/22 04:06:12;;;;;;;4.60;2.62;;;;;;;20.21;49.58;99439.97;4493498;31;33468;-66
2023/05/22 04:08:40;;;;;;;3.80;1.62;;;;;;;20.45;49.14;99433.47;4490198;31;34733;-65
2023/05/22 04:11:07;;;;;;;6.10;2.33;;;;;;;20.36;48.73;99440.00;4494091;31;35178;-64
2023/05/22 04:13:35;;;;;;;6.32;2.97;;;;;;;20.42;48.77;99438.44;4498957;31;34794;-66
2023/05/22 04:16:03;;;;;;;6.72;2.67;;;;;;;20.35;48.69;99448.34;4487630;31;32017;-64
2023/05/22 04:18:31;;;;;;;4.95;2.17;;;;;;;20.46;48.70;99453.34;4497784;31;33401;-66
2023/05/22 04:20:58;;;;;;;3.50;1.83;;;;;;;20.43;48.97;99443.66;4493067;31;34939;-66
2023/05/22 04:23:26;;;;;;;5.25;2.78;;;;;;;20.44;48.10;99436.34;4498629;31;34170;-65
2023/05/22 04:25:54;;;;;;;5.25;2.20;;;;;;;20.34;47.26;99443.94;4496540;31;33580;-67
2023/05/22 04:28:22;;;;;;;4.70;2.42;;;;;;;20.41;47.93;99447.59;4496820;31;34639;-64
2023/05/22 04:30:50;;;;;;;7.20;1.62;;;;;;;20.34;47.94;99449.38;4498770;31;34721;-66
2023/05/22 04:33:17;;;;;;;5.47;2.70;;;;;;;20.50;47.48;99453.81;4497282;31;34834;-65
2023/05/22 04:35:45;;;;;;;3.60;2.10;;;;;;;20.53;48.32;99454.31;4496439;31;32005;-65
2023/05/22 04:38:12;;;;;;;5.50;1.70;;;;;;;20.57;48.44;99461.06;4497780;31;33704;-65
2023/05/22 04:40:40;;;;;;;27.42;3.15;;;;;;;20.69;47.75;99454.13;4491840;31;35003;-66
2023/05/22 04:43:08;;;;;;;2.87;1.73;;;;;;;20.68;47.26;99448.91;4489618;31;33068;-65
2023/05/22 04:45:36;;;;;;;3.40;1.87;;;;;;;20.76;47.26;99448.78;4497216;31;33381;-65
2023/05/22 04:48:04;;;;;;;5.70;2.62;;;;;;;20.88;46.26;99451.87;4498933;31;34729;-64
2023/05/22 04:50:31;;;;;;;3.58;1.87;;;;;;;20.97;45.75;99458.09;4497413;31;34059;-65
2023/05/22 04:53:02;;;;;;;9.35;2.50;;;;;;;20.99;45.36;99461.44;4493573;31;34441;-64
2023/05/22 04:55:33;;;;;;;6.80;2.92;;;;;;;21.15;45.31;99458.50;4490906;31;33328;-63
2023/05/22 04:58:01;;;;;;;4.45;2.30;;;;;;;21.20;46.24;99460.69;4493406;31;33481;-64
2023/05/22 05:00:29;;;;;;;8.02;2.17;;;;;;;21.37;45.02;99462.16;4493884;31;35441;-70
2023/05/22 05:02:59;;;;;;;3.33;2.00;;;;;;;21.44;45.05;99459.50;4496475;31;34655;-63
2023/05/22 05:05:27;;;;;;;3.65;1.92;;;;;;;21.58;45.03;99454.03;4496910;31;32481;-62
2023/05/22 05:07:55;;;;;;;7.57;2.85;;;;;;;21.72;44.38;99454.19;4493187;31;32416;-62
2023/05/22 05:10:22;;;;;;;8.15;2.55;;;;;;;21.68;44.93;99467.34;4488823;31;35435;-61
2023/05/22 05:12:51;;;;;;;3.70;1.95;;;;;;;21.60;46.22;99467.44;4497615;31;33504;-62
2023/05/22 05:15:21;;;;;;;6.25;2.40;;;;;;;21.81;45.50;99462.03;4498808;31;33613;-63
2023/05/22 05:17:49;;;;;;;4.35;1.83;;;;;;;21.92;45.36;99471.56;4499975;31;36150;-63
2023/05/22 05:20:17;;;;;;;3.95;2.22;;;;;;;21.99;45.74;99477.06;4492952;31;34192;-62
2023/05/22 05:22:45;;;;;;;5.78;3.87;;;;;;;22.04;46.29;99469.16;4498431;31;34732;-62
2023/05/22 05:25:13;;;;;;;4.37;2.47;;;;;;;22.06;47.08;99465.22;4497434;31;34482;-64
2023/05/22 05:27:41;;;;;;;5.32;2.75;;;;;;;22.09;47.14;99467.53;4494855;31;34999;-65
2023/05/22 05:30:09;;;;;;;6.32;2.75;;;;;;;22.26;47.25;99475.47;4491643;31;33962;-64
2023/05/22 05:32:37;;;;;;;6.93;3.42;;;;;;;22.27;47.62;99472.53;4497276;31;33549;-65
2023/05/22 05:35:06;;;;;;;14.55;3.75;;;;;;;22.32;46.76;99472.81;4493263;31;33622;-64
2023/05/22 05:37:35;;;;;;;5.65;2.65;;;;;;;22.41;46.22;99468.06;4490332;31;34442;-65
2023/05/22 05:40:05;;;;;;;12.25;2.87;;;;;;;22.44;47.11;99470.38;4496238;31;35221;-64
2023/05/22 05:42:34;;;;;;;6.07;3.08;;;;;;;22.69;46.79;99478.94;4498064;31;33898;-65
2023/05/22 05:45:02;;;;;;;6.97;3.60;;;;;;;22.90;47.84;99479.91;4495360;31;34263;-65
2023/05/22 05:47:31;;;;;;;6.12;2.85;;;;;;;22.92;45.13;99488.72;4496879;31;33739;-65
2023/05/22 05:49:59;;;;;;;5.15;2.40;;;;;;;23.02;42.82;99489.25;4497763;31;33967;-64
2023/05/22 05:52:31;;;;;;;5.28;2.75;;;;;;;22.60;43.10;99485.59;4498275;31;33116;-65
2023/05/22 05:55:02;;;;;;;9.30;2.67;;;;;;;22.83;41.52;99492.69;4491841;31;34681;-65
2023/05/22 05:57:30;;;;;;;13.90;3.17;;;;;;;23.01;41.86;99491.13;4484086;31;32989;-64
2023/05/22 05:59:58;;;;;;;4.75;2.10;;;;;;;22.80;42.06;99480.28;4490254;31;32739;-64
2023/05/22 06:02:27;;;;;;;5.32;2.58;;;;;;;22.82;40.06;99489.09;4490726;31;34850;-64
2023/05/22 06:04:55;;;;;;;6.20;2.50;;;;;;;23.16;38.93;99484.72;4499077;31;32525;-65
2023/05/22 06:07:23;;;;;;;5.72;2.25;;;;;;;23.21;38.85;99485.78;4494394;31;32802;-65
2023/05/22 06:09:51;;;;;;;3.90;1.92;;;;;;;23.12;37.93;99491.63;4495233;31;32569;-65
2023/05/22 06:12:20;;;;;;;6.35;2.28;;;;;;;23.35;37.21;99489.41;4493690;31;33784;-65
2023/05/22 06:14:47;;;;;;;3.95;2.05;;;;;;;23.12;36.46;99475.25;4486596;31;34820;-64
2023/05/22 06:17:15;;;;;;;8.32;2.72;;;;;;;23.46;36.01;99477.06;4487255;31;33275;-65
2023/05/22 06:19:43;;;;;;;4.37;1.92;;;;;;;23.13;36.95;99477.75;4482361;31;32800;-62
2023/05/22 06:22:11;;;;;;;3.15;1.75;;;;;;;23.43;35.27;99485.66;4492907;31;35182;-62
2023/05/22 06:24:39;;;;;;;8.93;2.50;;;;;;;23.29;35.61;99479.31;4498277;31;34723;-65
2023/05/22 06:27:08;;;;;;;5.55;1.87;;;;;;;22.90;37.03;99483.47;4499002;31;33448;-65
2023/05/22 06:29:35;;;;;;;6.57;2.42;;;;;;;23.32;37.17;99476.16;4498484;31;34994;-65
2023/05/22 06:32:04;;;;;;;3.97;2.40;;;;;;;23.33;36.79;99479.72;4495174;31;33828;-65
2023/05/22 06:34:32;;;;;;;4.20;1.45;;;;;;;23.24;36.45;99477.19;4496387;31;32736;-65
2023/05/22 06:37:02;;;;;;;3.55;1.55;;;;;;;23.37;36.70;99481.88;4493580;31;33710;-66
2023/05/22 06:39:30;;;;;;;3.90;1.95;;;;;;;23.74;35.04;99474.22;4489566;31;32911;-66
2023/05/22 06:42:00;;;;;;;6.72;2.35;;;;;;;23.67;34.03;99485.13;4493296;31;32831;-65
2023/05/22 06:44:35;;;;;;;;;;;;;;;23.24;34.34;99489.97;4498165;31;34542;-64
2023/05/22 06:47:04;;;;;;;9.15;2.58;;;;;;;23.69;33.82;99484.91;4497115;31;34199;-65
2023/05/22 06:49:33;;;;;;;3.03;2.08;;;;;;;23.58;34.23;99483.63;4496990;31;33759;-64
2023/05/22 06:52:00;;;;;;;6.00;2.60;;;;;;;23.70;34.57;99494.81;4496406;31;34501;-65
2023/05/22 06:54:31;;;;;;;6.22;2.90;;;;;;;23.41;34.63;99496.78;4492911;31;33471;-64
2023/05/22 06:56:59;;;;;;;9.77;2.65;;;;;;;23.18;35.82;99488.94;4490295;31;33811;-65
2023/05/22 06:59:26;;;;;;;5.37;2.17;;;;;;;23.68;34.31;99499.59;4486645;31;34939;-65
2023/05/22 07:01:57;;;;;;;3.72;2.08;;;;;;;23.92;33.88;99495.50;4488957;31;35066;-65
2023/05/22 07:04:26;;;;;;;4.87;2.33;;;;;;;24.04;34.15;99490.25;4492285;31;34269;-65
2023/05/22 07:06:54;;;;;;;3.62;2.00;;;;;;;24.05;34.55;99483.75;4488855;31;32622;-65
2023/05/22 07:09:24;;;;;;;5.35;1.98;;;;;;;23.86;35.16;99493.59;4497014;31;33793;-64
2023/05/22 07:11:52;;;;;;;5.70;2.30;;;;;;;23.73;35.66;99485.38;4497082;31;34840;-65
2023/05/22 07:14:20;;;;;;;8.40;2.45;;;;;;;23.04;36.37;99492.63;4491980;31;33674;-65
2023/05/22 07:16:48;;;;;;;6.28;3.30;;;;;;;23.93;36.16;99491.72;4488269;31;34903;-65
2023/05/22 07:19:16;;;;;;;11.57;2.67;;;;;;;24.17;35.36;99485.66;4497029;31;34036;-65
2023/05/22 07:21:44;;;;;;;5.65;2.55;;;;;;;24.09;35.81;99485.84;4495191;31;33509;-65
2023/05/22 07:24:13;;;;;;;3.60;2.25;;;;;;;23.91;35.30;99499.28;4497745;31;33299;-65
2023/05/22 07:26:45;;;;;;;5.12;2.53;;;;;;;23.34;36.76;99504.13;4499301;31;35715;-66
2023/05/22 07:29:13;;;;;;;8.43;2.67;;;;;;;23.46;36.01;99507.09;4497260;31;33457;-65
2023/05/22 07:31:41;;;;;;;5.85;2.25;;;;;;;23.59;35.89;99498.09;4497508;31;33352;-65
2023/05/22 07:34:09;;;;;;;3.95;2.35;;;;;;;23.07;35.78;99503.13;4495459;31;34654;-65
2023/05/22 07:36:37;;;;;;;4.97;2.58;;;;;;;23.44;35.89;99501.84;4498036;31;33802;-65
2023/05/22 07:39:05;;;;;;;5.40;2.67;;;;;;;23.63;34.45;99500.25;4495645;31;34047;-65
2023/05/22 07:41:34;;;;;;;6.68;3.30;;;;;;;23.39;35.71;99498.03;4497330;31;33720;-65
2023/05/22 07:44:02;;;;;;;5.40;2.50;;;;;;;23.63;35.59;99502.12;4497865;31;33183;-64
2023/05/22 07:46:30;;;;;;;6.00;2.45;;;;;;;23.56;35.80;99490.31;4488703;31;34608;-64
2023/05/22 07:48:58;;;;;;;4.60;2.60;;;;;;;23.87;35.01;99492.56;4496682;31;32913;-65
2023/05/22 07:51:26;;;;;;;4.47;2.20;;;;;;;23.86;34.88;99490.87;4497634;31;33703;-65
2023/05/22 07:53:54;;;;;;;4.55;2.50;;;;;;;23.60;35.08;99486.16;4497243;31;34218;-64
2023/05/22 07:56:24;;;;;;;6.32;2.25;;;;;;;23.92;35.27;99490.87;4496533;31;33867;-66
2023/05/22 07:58:53;;;;;;;5.32;2.35;;;;;;;23.92;34.85;99487.31;4491680;31;34110;-62
2023/05/22 08:01:21;;;;;;;6.03;2.75;;;;;;;23.86;34.97;99488.16;4491398;31;35123;-62
2023/05/22 08:03:49;;;;;;;5.47;2.47;;;;;;;23.70;35.85;99478.44;4492162;31;34528;-63
2023/05/22 08:06:17;;;;;;;4.18;2.00;;;;;;;23.42;36.14;99481.25;4488049;31;34760;-62
2023/05/22 08:08:44;;;;;;;5.93;2.28;;;;;;;23.64;35.93;99487.41;4490501;31;35023;-62
2023/05/22 08:11:12;;;;;;;5.60;2.10;;;;;;;23.73;35.54;99486.22;4495914;31;34643;-62
2023/05/22 08:13:40;;;;;;;6.62;2.47;;;;;;;23.64;35.88;99484.69;4496534;31;33416;-62
2023/05/22 08:16:07;;;;;;;3.83;1.87;;;;;;;23.57;36.34;99490.13;4489240;31;32759;-62
2023/05/22 08:18:35;;;;;;;4.47;2.22;;;;;;;23.55;35.87;99488.66;4497263;31;34176;-61
2023/05/22 08:21:03;;;;;;;6.65;2.30;;;;;;;23.59;35.64;99479.81;4497121;31;33807;-62
2023/05/22 08:23:31;;;;;;;6.50;2.37;;;;;;;23.62;35.52;99484.88;4495107;31;32034;-62
2023/05/22 08:25:59;;;;;;;5.60;2.28;;;;;;;23.45;35.83;99484.41;4489406;31;33546;-63
2023/05/22 08:28:26;;;;;;;8.15;2.75;;;;;;;23.76;35.71;99484.97;4483811;31;34066;-63
2023/05/22 08:30:54;;;;;;;5.80;2.70;;;;;;;23.99;36.22;99490.91;4485990;31;34936;-63
2023/05/22 08:33:22;;;;;;;14.55;2.80;;;;;;;23.79;37.27;99485.41;4496198;31;33342;-63
2023/05/22 08:35:49;;;;;;;3.78;2.15;;;;;;;23.95;36.13;99484.16;4491532;31;34841;-63
2023/05/22 08:38:17;;;;;;;3.72;1.95;;;;;;;23.76;36.78;99484.97;4492301;31;34890;-63
2023/05/22 08:40:47;;;;;;;6.45;1.92;;;;;;;24.29;36.76;99483.13;4490668;31;33635;-63
2023/05/22 08:43:15;;;;;;;7.57;3.22;;;;;;;24.44;36.22;99499.38;4487510;31;33395;-64
2023/05/22 08:45:42;;;;;;;4.00;2.12;;;;;;;24.55;35.77;99486.94;4495271;31;33959;-64
2023/05/22 08:48:12;;;;;;;13.55;3.58;;;;;;;24.58;36.69;99483.78;4494859;31;34323;-63
2023/05/22 08:50:41;;;;;;;6.62;3.08;;;;;;;24.90;35.53;99489.41;4489637;31;33855;-63
2023/05/22 08:53:12;;;;;;;7.30;3.05;;;;;;;25.00;35.80;99498.87;4495502;31;32033;-63
2023/05/22 08:55:40;;;;;;;7.97;2.35;;;;;;;24.58;35.74;99489.25;4489298;31;35011;-62
2023/05/22 08:58:07;;;;;;;5.62;2.65;;;;;;;24.76;35.46;99491.34;4494056;31;33061;-62
2023/05/22 09:00:35;;;;;;;7.62;2.47;;;;;;;25.03;34.82;99486.66;4490346;31;32718;-63
2023/05/22 09:03:05;;;;;;;5.15;2.17;;;;;;;25.13;35.00;99491.72;4485797;31;33273;-64
2023/05/22 09:05:35;;;;;;;4.45;2.97;;;;;;;25.33;34.13;99484.28;4485687;31;33687;-63
2023/05/22 09:08:03;;;;;;;6.25;2.33;;;;;;;25.06;35.10;99483.47;4493411;31;33989;-63
2023/05/22 09:10:46;;;;;;;9.20;3.08;;;;;;;25.29;35.81;99492.06;4490679;31;34734;-63
2023/05/22 09:13:24;;;;;;;5.65;2.58;;;;;;;24.99;36.17;99488.97;4488109;31;33219;-63
2023/05/22 09:15:52;;;;;;;4.37;2.60;;;;;;;25.61;35.36;99489.41;4499228;31;33796;-63
2023/05/22 09:18:20;;;;;;;5.65;2.95;;;;;;;25.39;35.17;99490.78;4489502;31;34178;-63
2023/05/22 09:20:49;;;;;;;5.03;3.20;;;;;;;25.34;34.99;99483.22;4492468;31;33838;-63
2023/05/22 09:23:20;;;;;;;10.10;2.87;;;;;;;25.14;35.49;99483.28;4495615;31;34523;-63
2023/05/22 09:25:48;;;;;;;7.40;3.83;;;;;;;24.74;35.96;99485.25;4489265;31;34640;-63
2023/05/22 09:28:15;;;;;;;6.90;3.70;;;;;;;24.98;35.70;99481.00;4497429;31;33866;-62
2023/05/22 09:30:48;;;;;;;5.68;3.22;;;;;;;25.39;35.90;99485.28;4500138;31;34551;-62
2023/05/22 09:33:17;;;;;;;6.70;3.10;;;;;;;25.33;35.08;99478.81;4495470;31;34938;-64
2023/05/22 09:35:46;;;;;;;5.37;3.03;;;;;;;25.50;34.41;99476.41;4493251;31;33586;-63
2023/05/22 09:38:13;;;;;;;4.25;1.98;;;;;;;25.67;35.37;99480.31;4492476;31;35319;-63
2023/05/22 09:40:41;;;;;;;10.85;2.45;;;;;;;25.50;35.86;99481.88;4490234;31;34066;-64
2023/05/22 09:43:09;;;;;;;5.37;2.75;;;;;;;25.97;34.78;99479.72;4495604;31;32253;-65
2023/05/22 09:45:38;;;;;;;4.22;2.67;;;;;;;25.87;34.97;99480.22;4496432;31;32405;-65
2023/05/22 09:48:07;;;;;;;6.55;3.17;;;;;;;26.01;34.13;99481.81;4490221;31;35064;-64
2023/05/22 09:50:35;;;;;;;8.68;2.70;;;;;;;26.08;34.66;99484.50;4486294;31;33932;-64
2023/05/22 09:53:04;;;;;;;7.25;3.30;;;;;;;25.96;33.95;99473.41;4503125;31;33041;-63
2023/05/22 09:55:32;;;;;;;8.27;3.28;;;;;;;25.58;35.09;99478.03;4496106;31;34633;-64
2023/05/22 09:58:03;;;;;;;7.97;2.80;;;;;;;25.48;35.57;99476.59;4483284;31;33678;-64
2023/05/22 10:00:33;;;;;;;6.87;2.78;;;;;;;26.12;35.40;99472.03;4489859;31;33808;-64
2023/05/22 10:03:14;;;;;;;7.30;3.58;;;;;;;26.00;34.86;99468.31;4497575;31;32477;-63
2023/05/22 10:05:47;;;;;;;9.68;3.25;;;;;;;26.37;33.68;99473.97;4499952;31;33555;-64
2023/05/22 10:08:24;;;;;;;6.22;2.83;;;;;;;26.52;33.71;99470.88;4497420;31;34884;-64
2023/05/22 10:10:52;;;;;;;5.28;2.33;;;;;;;26.79;33.12;99463.25;4498253;31;34672;-64
2023/05/22 10:13:20;;;;;;;12.57;3.95;;;;;;;26.19;32.80;99464.59;4497990;31;33424;-65
2023/05/22 10:15:49;;;;;;;8.07;2.55;;;;;;;26.47;33.29;99466.87;4498749;31;33874;-64
2023/05/22 10:18:17;;;;;;;4.75;2.50;;;;;;;26.84;32.02;99460.66;4498575;31;31332;-63
2023/05/22 10:20:47;;;;;;;8.80;3.35;;;;;;;27.16;31.16;99458.66;4499175;31;33722;-64
2023/05/22 10:23:16;;;;;;;7.00;3.65;;;;;;;26.99;31.43;99457.53;4497898;31;34516;-63
2023/05/22 10:25:44;;;;;;;6.20;3.22;;;;;;;26.91;32.17;99448.53;4499018;31;33956;-63
2023/05/22 10:28:21;;;;;;;8.63;2.85;;;;;;;27.46;30.30;99449.59;4494626;31;32544;-64
2023/05/22 10:30:52;;;;;;;5.00;2.78;;;;;;;27.34;30.97;99446.78;4491303;31;35163;-65
2023/05/22 10:33:28;;;;;;;6.53;2.85;;;;;;;27.85;30.11;99448.22;4485380;31;33486;-64
2023/05/22 10:36:00;;;;;;;5.45;3.28;;;;;;;27.96;29.98;99449.31;4494627;31;33755;-64
2023/05/22 10:38:56;;;;;;;11.95;3.65;;;;;;;27.83;29.64;99434.72;4488205;31;33776;-65
2023/05/22 10:41:25;;;;;;;7.65;3.53;;;;;;;27.65;30.47;99440.25;4493679;31;34140;-66
2023/05/22 10:43:55;;;;;;;7.43;2.87;;;;;;;28.10;30.13;99432.38;4494119;31;33497;-65
2023/05/22 10:46:22;;;;;;;6.68;3.17;;;;;;;28.24;30.97;99427.47;4489459;31;35070;-64
2023/05/22 10:48:54;;;;;;;8.23;3.25;;;;;;;27.92;31.27;99429.69;4487134;31;34121;-65
2023/05/22 10:51:22;;;;;;;6.70;2.87;;;;;;;28.08;30.68;99429.00;4483599;32;34964;-64
2023/05/22 10:53:57;;;;;;;6.72;2.97;;;;;;;27.98;29.86;99426.00;4492369;31;33395;-65
2023/05/22 10:56:33;;;;;;;4.75;2.75;;;;;;;28.24;29.72;99427.47;4484407;31;33529;-64
2023/05/22 10:59:06;;;;;;;8.27;3.08;;;;;;;28.59;29.59;99420.34;4497918;31;33848;-65
2023/05/22 11:01:36;;;;;;;;;;;;;;;28.05;30.04;99418.47;4492772;31;33572;-66
2023/05/22 11:04:11;;;;;;;7.97;3.87;;;;;;;28.60;29.23;99420.09;4485191;31;34178;-65
2023/05/22 11:06:41;;;;;;;;;;;;;;;28.32;29.89;99413.38;4496503;31;33959;-64
2023/05/22 11:09:31;;;;;;;6.10;3.20;;;;;;;28.63;30.57;99408.59;4487676;31;34126;-64
2023/05/22 11:12:26;;;;;;;11.70;3.47;;;;;;;29.20;29.57;99402.44;4494162;31;33692;-63
2023/05/22 11:15:07;;;;;;;7.20;2.12;;;;;;;29.17;29.46;99397.41;4487910;31;33264;-65
2023/05/22 11:17:38;;;;;;;4.85;2.55;;;;;;;29.20;29.90;99399.66;4495890;31;34660;-66
2023/05/22 11:20:11;;;;;;;5.20;2.72;;;;;;;29.24;29.90;99398.91;4489378;31;33169;-64
2023/05/22 11:22:41;;;;;;;7.85;3.35;;;;;;;29.43;29.82;99394.06;4487673;31;35108;-64
2023/05/22 11:25:13;;;;;;;5.93;3.03;;;;;;;29.53;29.11;99396.16;4492351;31;34660;-63
2023/05/22 11:27:41;;;;;;;9.15;3.45;;;;;;;29.36;28.89;99390.63;4483932;31;34837;-64
2023/05/22 11:30:10;;;;;;;9.65;3.75;;;;;;;29.20;29.02;99391.41;4497531;31;34858;-64
2023/05/22 11:32:39;;;;;;;6.60;3.55;;;;;;;28.86;30.35;99393.13;4496760;31;34933;-64
2023/05/22 11:35:07;;;;;;;9.07;3.33;;;;;;;29.05;30.26;99386.41;4488270;31;34474;-64
2023/05/22 11:37:41;;;;;;;5.78;3.20;;;;;;;29.21;29.30;99390.31;4491629;31;33632;-64
2023/05/22 11:40:11;;;;;;;8.18;3.20;;;;;;;29.15;29.47;99381.13;4491762;31;34649;-64
2023/05/22 11:42:39;;;;;;;8.70;3.30;;;;;;;29.35;29.40;99380.69;4498491;31;33814;-64
2023/05/22 11:45:07;;;;;;;12.02;3.42;;;;;;;29.45;29.21;99380.88;4497619;31;33311;-64